createdAt,value
2023-05-30T00:00:19.798Z,19.98
2023-05-30T00:02:47.550Z,20.51
2023-05-30T00:05:14.964Z,20.29
2023-05-30T00:07:42.357Z,20.37
2023-05-30T00:10:10.312Z,20.42
2023-05-30T00:12:37.716Z,20.41
2023-05-30T00:15:05.324Z,19.80
2023-05-30T00:17:34.019Z,19.74
2023-05-30T00:20:01.943Z,19.72
2023-05-30T00:22:30.221Z,19.76
2023-05-30T00:25:01.044Z,20.21
2023-05-30T00:27:28.790Z,20.04
2023-05-30T00:29:56.195Z,19.96
2023-05-30T00:32:23.923Z,20.31
2023-05-30T00:34:51.449Z,20.36
2023-05-30T00:37:18.806Z,20.41
2023-05-30T00:39:47.314Z,20.09
2023-05-30T00:42:14.723Z,20.23
2023-05-30T00:44:42.075Z,20.41
2023-05-30T00:47:09.755Z,20.76
2023-05-30T00:49:37.126Z,20.72
2023-05-30T00:52:04.761Z,20.75
2023-05-30T00:54:32.656Z,20.85
2023-05-30T00:57:00.062Z,20.89
2023-05-30T00:59:27.516Z,20.75
2023-05-30T01:01:55.257Z,20.36
2023-05-30T01:04:23.463Z,20.29
2023-05-30T01:06:50.977Z,20.81
2023-05-30T01:09:19.401Z,20.86
2023-05-30T01:11:55.494Z,21.03
2023-05-30T01:14:36.182Z,20.96
2023-05-30T01:17:39.516Z,21.16
2023-05-30T01:20:08.666Z,21.14
2023-05-30T01:22:49.855Z,21.17
2023-05-30T01:25:50.779Z,21.03
2023-05-30T01:28:22.259Z,21.15
2023-05-30T01:30:50.566Z,21.29
2023-05-30T01:33:18.445Z,20.86
2023-05-30T01:35:46.629Z,20.90
2023-05-30T01:38:14.446Z,20.98
2023-05-30T01:40:50.060Z,20.84
2023-05-30T01:43:30.680Z,20.73
2023-05-30T01:46:04.340Z,21.13
2023-05-30T01:48:59.362Z,21.15
2023-05-30T01:51:35.772Z,21.27
2023-05-30T01:54:04.640Z,20.86
2023-05-30T01:56:32.555Z,21.35
2023-05-30T01:59:00.051Z,21.13
2023-05-30T02:01:29.364Z,21.09
2023-05-30T02:03:57.042Z,20.84
2023-05-30T02:06:24.810Z,21.01
2023-05-30T02:08:52.232Z,21.19
2023-05-30T02:11:19.956Z,20.75
2023-05-30T02:13:47.702Z,20.65
2023-05-30T02:16:15.082Z,21.11
2023-05-30T02:18:42.702Z,20.89
2023-05-30T02:21:10.387Z,20.92
2023-05-30T02:23:37.937Z,20.85
2023-05-30T02:26:06.207Z,20.17
2023-05-30T02:28:34.296Z,19.90
2023-05-30T02:31:02.573Z,19.97
2023-05-30T02:33:30.049Z,20.44
2023-05-30T02:35:57.726Z,20.28
2023-05-30T02:38:25.104Z,19.99
2023-05-30T02:40:52.907Z,20.12
2023-05-30T02:43:21.537Z,20.41
2023-05-30T02:45:49.261Z,20.81
2023-05-30T02:48:17.320Z,20.64
2023-05-30T02:50:44.999Z,20.34
2023-05-30T02:53:13.317Z,20.34
2023-05-30T02:55:43.909Z,20.19
2023-05-30T02:58:16.809Z,19.96
2023-05-30T03:00:44.836Z,20.23
2023-05-30T03:03:12.922Z,20.50
2023-05-30T03:05:40.707Z,20.50
2023-05-30T03:08:18.022Z,20.58
2023-05-30T03:10:53.212Z,20.44
2023-05-30T03:13:21.071Z,20.45
2023-05-30T03:15:49.783Z,20.46
2023-05-30T03:18:18.470Z,19.97
2023-05-30T03:20:45.815Z,19.79
2023-05-30T03:23:13.588Z,19.74
2023-05-30T03:25:41.514Z,19.73
2023-05-30T03:28:08.891Z,20.34
2023-05-30T03:30:36.841Z,20.06
2023-05-30T03:33:04.759Z,20.09
2023-05-30T03:35:33.384Z,20.64
2023-05-30T03:38:04.273Z,20.66
2023-05-30T03:40:31.991Z,20.37
2023-05-30T03:43:00.545Z,20.72
2023-05-30T03:45:28.011Z,20.73
2023-05-30T03:47:56.538Z,20.75
2023-05-30T03:50:23.933Z,20.58
2023-05-30T03:52:51.382Z,21.12
2023-05-30T03:55:19.039Z,21.08
2023-05-30T03:57:48.055Z,20.90
2023-05-30T04:00:16.523Z,21.27
2023-05-30T04:02:44.287Z,20.84
2023-05-30T04:05:11.668Z,21.04
2023-05-30T04:07:39.507Z,20.86
2023-05-30T04:10:07.775Z,21.05
2023-05-30T04:12:35.159Z,21.61
2023-05-30T04:15:02.634Z,21.65
2023-05-30T04:17:32.133Z,21.59
2023-05-30T04:19:59.685Z,21.13
2023-05-30T04:22:27.192Z,21.02
2023-05-30T04:24:54.909Z,21.01
2023-05-30T04:27:22.464Z,21.19
2023-05-30T04:29:49.925Z,20.94
2023-05-30T04:32:17.822Z,21.58
2023-05-30T04:34:45.275Z,21.94
2023-05-30T04:37:19.152Z,22.27
2023-05-30T04:39:46.825Z,21.71
2023-05-30T04:42:14.875Z,22.16
2023-05-30T04:44:42.302Z,21.94
2023-05-30T04:47:11.643Z,21.92
2023-05-30T04:49:40.809Z,21.75
2023-05-30T04:52:08.904Z,21.78
2023-05-30T04:54:36.588Z,21.88
2023-05-30T04:57:04.089Z,21.78
2023-05-30T04:59:31.666Z,22.03
2023-05-30T05:01:59.316Z,21.79
2023-05-30T05:04:26.782Z,22.49
2023-05-30T05:06:54.167Z,22.31
2023-05-30T05:09:23.436Z,22.36
2023-05-30T05:11:51.586Z,22.42
2023-05-30T05:14:18.987Z,22.92
2023-05-30T05:16:46.616Z,23.27
2023-05-30T05:19:13.990Z,23.36
2023-05-30T05:21:41.434Z,23.57
2023-05-30T05:24:09.169Z,23.46
2023-05-30T05:26:36.835Z,23.56
2023-05-30T05:29:04.258Z,23.74
2023-05-30T05:31:34.438Z,23.78
2023-05-30T05:34:02.019Z,24.27
2023-05-30T05:36:29.455Z,24.01
2023-05-30T05:38:57.079Z,24.09
2023-05-30T05:41:24.481Z,24.11
2023-05-30T05:43:51.883Z,23.91
2023-05-30T05:46:19.629Z,24.25
2023-05-30T05:48:47.104Z,24.49
2023-05-30T05:51:14.535Z,24.68
2023-05-30T05:53:42.249Z,25.14
2023-05-30T05:56:09.625Z,25.56
2023-05-30T05:58:37.135Z,25.92
2023-05-30T06:01:05.361Z,26.64
2023-05-30T06:03:33.005Z,28.01
2023-05-30T06:06:00.620Z,29.82
2023-05-30T06:08:28.051Z,29.95
2023-05-30T06:10:56.238Z,29.54
2023-05-30T06:13:27.082Z,28.85
2023-05-30T06:15:54.545Z,28.26
2023-05-30T06:18:22.233Z,28.12
2023-05-30T06:20:49.758Z,27.92
2023-05-30T06:23:17.270Z,28.08
2023-05-30T06:25:44.894Z,28.50
2023-05-30T06:28:12.295Z,27.31
2023-05-30T06:30:39.738Z,28.40
2023-05-30T06:33:07.379Z,29.74
2023-05-30T06:35:35.841Z,31.36
2023-05-30T06:38:03.271Z,31.89
2023-05-30T06:40:31.053Z,33.13
2023-05-30T06:42:58.400Z,34.50
2023-05-30T06:45:25.800Z,35.92
2023-05-30T06:47:53.544Z,35.67
2023-05-30T06:50:21.189Z,31.67
2023-05-30T06:52:48.551Z,31.62
2023-05-30T06:55:16.548Z,28.80
2023-05-30T06:57:47.331Z,31.29
2023-05-30T07:00:16.794Z,31.55
2023-05-30T07:02:44.270Z,32.47
2023-05-30T07:05:11.835Z,31.90
2023-05-30T07:07:40.505Z,33.75
2023-05-30T07:10:08.602Z,32.91
2023-05-30T07:12:36.148Z,33.43
2023-05-30T07:15:04.140Z,32.69
2023-05-30T07:17:33.754Z,34.37
2023-05-30T07:20:01.186Z,35.61
2023-05-30T07:22:29.134Z,36.37
2023-05-30T07:24:56.533Z,38.50
2023-05-30T07:27:24.467Z,38.28
2023-05-30T07:29:52.296Z,38.24
2023-05-30T07:32:19.655Z,38.41
2023-05-30T07:34:47.042Z,38.19
2023-05-30T07:37:14.833Z,39.78
2023-05-30T07:39:42.278Z,39.21
2023-05-30T07:42:09.681Z,40.17
2023-05-30T07:44:37.268Z,41.35
2023-05-30T07:47:04.928Z,41.91
2023-05-30T07:49:32.288Z,42.51
2023-05-30T07:51:59.947Z,42.42
2023-05-30T07:54:27.375Z,41.76
2023-05-30T07:56:55.017Z,42.16
2023-05-30T07:59:22.625Z,40.97
2023-05-30T08:01:50.067Z,41.94
2023-05-30T08:04:17.681Z,41.99
2023-05-30T08:06:45.137Z,42.76
2023-05-30T08:09:12.711Z,40.53
2023-05-30T08:11:40.894Z,41.69
2023-05-30T08:14:08.298Z,43.12
2023-05-30T08:16:35.773Z,43.22
2023-05-30T08:19:04.057Z,43.06
2023-05-30T08:21:33.003Z,43.00
2023-05-30T08:24:01.782Z,42.09
2023-05-30T08:26:35.695Z,43.50
2023-05-30T08:29:05.143Z,43.44
2023-05-30T08:31:32.871Z,44.32
2023-05-30T08:34:03.906Z,43.89
2023-05-30T08:36:31.483Z,44.38
2023-05-30T08:39:13.866Z,44.73
2023-05-30T08:41:42.195Z,44.97
2023-05-30T08:44:09.899Z,42.12
2023-05-30T08:46:39.927Z,43.52
2023-05-30T08:49:08.603Z,44.69
2023-05-30T08:51:37.323Z,44.68
2023-05-30T08:54:04.801Z,43.83
2023-05-30T08:56:38.904Z,44.05
2023-05-30T08:59:09.241Z,44.05
2023-05-30T09:01:37.139Z,44.46
2023-05-30T09:04:07.593Z,44.85
2023-05-30T09:06:37.290Z,44.92
2023-05-30T09:09:04.767Z,44.83
2023-05-30T09:11:32.245Z,45.24
2023-05-30T09:13:59.923Z,44.69
2023-05-30T09:16:31.032Z,45.37
2023-05-30T09:19:01.373Z,42.23
2023-05-30T09:21:32.820Z,44.58
2023-05-30T09:24:04.656Z,45.06
2023-05-30T09:26:35.106Z,43.91
2023-05-30T09:29:11.743Z,43.09
2023-05-30T09:31:39.467Z,42.01
2023-05-30T09:34:06.976Z,41.87
2023-05-30T09:36:34.324Z,42.01
2023-05-30T09:39:03.397Z,41.49
2023-05-30T09:41:31.158Z,40.39
2023-05-30T09:43:58.850Z,40.52
2023-05-30T09:46:28.004Z,40.47
2023-05-30T09:48:56.264Z,40.51
2023-05-30T09:51:26.424Z,40.07
2023-05-30T09:53:57.696Z,39.96
2023-05-30T09:56:32.057Z,40.42
2023-05-30T09:59:02.796Z,40.98
2023-05-30T10:01:39.292Z,41.32
2023-05-30T10:04:13.190Z,41.60
2023-05-30T10:06:42.840Z,42.16
2023-05-30T10:09:11.197Z,42.15
2023-05-30T10:11:39.774Z,43.17
2023-05-30T10:14:20.387Z,43.75
2023-05-30T10:17:15.396Z,43.29
2023-05-30T10:19:51.752Z,42.28
2023-05-30T10:22:25.780Z,42.34
2023-05-30T10:24:53.689Z,42.74
2023-05-30T10:27:32.359Z,43.16
2023-05-30T10:30:09.398Z,42.05
2023-05-30T10:32:48.674Z,41.92
2023-05-30T10:35:16.508Z,42.61
2023-05-30T10:37:43.969Z,43.78
2023-05-30T10:40:27.047Z,43.50
2023-05-30T10:43:15.004Z,43.41
2023-05-30T10:46:16.532Z,43.84
2023-05-30T10:49:01.192Z,43.95
2023-05-30T10:51:28.623Z,41.91
2023-05-30T10:53:57.163Z,41.36
2023-05-30T10:56:32.904Z,39.52
2023-05-30T10:59:01.798Z,38.43
2023-05-30T11:01:33.157Z,37.94
2023-05-30T11:04:09.036Z,37.02
2023-05-30T11:06:46.997Z,36.26
2023-05-30T11:09:17.305Z,35.71
2023-05-30T11:11:46.397Z,35.27
2023-05-30T11:14:14.848Z,33.38
2023-05-30T11:16:50.058Z,33.14
2023-05-30T11:19:19.787Z,33.14
2023-05-30T11:22:03.938Z,31.91
2023-05-30T11:24:32.006Z,32.34
2023-05-30T11:27:08.366Z,32.64
2023-05-30T11:29:42.010Z,32.69
2023-05-30T11:32:10.007Z,32.27
2023-05-30T11:34:37.980Z,31.70
2023-05-30T11:37:05.736Z,31.53
2023-05-30T11:39:37.490Z,31.63
2023-05-30T11:42:06.741Z,32.20
2023-05-30T11:44:34.708Z,31.85
2023-05-30T11:47:58.553Z,32.34
2023-05-30T11:51:03.449Z,32.35
2023-05-30T11:53:31.614Z,32.36
2023-05-30T11:55:59.022Z,32.35
2023-05-30T11:58:26.385Z,32.39
2023-05-30T12:00:54.062Z,30.78
2023-05-30T12:03:21.901Z,31.50
2023-05-30T12:05:49.643Z,31.43
2023-05-30T12:08:20.357Z,31.77
2023-05-30T12:10:51.330Z,32.03
2023-05-30T12:13:22.335Z,31.96
2023-05-30T12:15:50.834Z,32.26
2023-05-30T12:18:18.895Z,31.69
2023-05-30T12:20:46.685Z,32.07
2023-05-30T12:23:14.564Z,31.89
2023-05-30T12:25:50.252Z,31.91
2023-05-30T12:28:17.941Z,31.69
2023-05-30T12:30:45.684Z,31.34
2023-05-30T12:33:15.897Z,31.31
2023-05-30T12:35:43.616Z,30.93
2023-05-30T12:38:13.891Z,31.32
2023-05-30T12:40:47.085Z,30.63
2023-05-30T12:43:26.551Z,30.28
2023-05-30T12:45:53.974Z,30.34
2023-05-30T12:48:21.639Z,29.46
2023-05-30T12:50:49.302Z,28.94
2023-05-30T12:53:16.726Z,28.86
2023-05-30T12:55:44.408Z,29.40
2023-05-30T12:58:11.831Z,29.83
2023-05-30T13:00:39.267Z,29.84
2023-05-30T13:03:07.078Z,29.69
2023-05-30T13:05:34.695Z,29.64
2023-05-30T13:08:02.099Z,29.85
2023-05-30T13:10:29.754Z,28.86
2023-05-30T13:12:57.201Z,29.01
2023-05-30T13:15:24.602Z,29.18
2023-05-30T13:17:52.718Z,29.66
2023-05-30T13:20:20.176Z,29.58
2023-05-30T13:22:47.604Z,29.40
2023-05-30T13:25:15.408Z,29.12
2023-05-30T13:27:44.922Z,29.67
2023-05-30T13:30:13.367Z,29.73
2023-05-30T13:32:41.190Z,29.89
2023-05-30T13:35:09.160Z,29.98
2023-05-30T13:37:36.731Z,29.79
2023-05-30T13:40:05.593Z,28.77
2023-05-30T13:42:37.574Z,29.13
2023-05-30T13:45:06.186Z,28.98
2023-05-30T13:47:33.667Z,29.57
2023-05-30T13:50:01.103Z,29.81
2023-05-30T13:52:29.579Z,29.81
2023-05-30T13:54:57.000Z,30.11
2023-05-30T13:57:24.589Z,30.07
2023-05-30T13:59:52.283Z,30.53
2023-05-30T14:02:21.820Z,30.25
2023-05-30T14:04:49.622Z,30.29
2023-05-30T14:07:17.210Z,30.40
2023-05-30T14:09:45.039Z,30.31
2023-05-30T14:12:12.733Z,29.26
2023-05-30T14:14:40.148Z,29.69
2023-05-30T14:17:09.514Z,29.93
2023-05-30T14:19:37.700Z,30.06
2023-05-30T14:22:07.374Z,30.09
2023-05-30T14:24:35.057Z,30.07
2023-05-30T14:27:02.697Z,30.17
2023-05-30T14:29:30.116Z,30.01
2023-05-30T14:31:58.819Z,29.62
2023-05-30T14:34:26.543Z,29.65
2023-05-30T14:36:54.010Z,29.71
2023-05-30T14:39:21.434Z,29.79
2023-05-30T14:41:50.763Z,29.53
2023-05-30T14:44:18.191Z,29.42
2023-05-30T14:46:45.634Z,29.18
2023-05-30T14:49:13.328Z,29.51
2023-05-30T14:51:40.876Z,28.66
2023-05-30T14:54:09.395Z,28.32
2023-05-30T14:56:37.719Z,26.08
2023-05-30T14:59:05.154Z,24.46
2023-05-30T15:01:45.280Z,23.94
2023-05-30T15:04:16.125Z,22.20
2023-05-30T15:06:44.508Z,21.87
2023-05-30T15:09:13.599Z,21.77
2023-05-30T15:11:41.943Z,20.26
2023-05-30T15:14:09.387Z,20.08
2023-05-30T15:16:38.272Z,19.17
2023-05-30T15:19:07.908Z,18.62
2023-05-30T15:21:35.738Z,18.42
2023-05-30T15:24:03.235Z,18.19
2023-05-30T15:26:30.936Z,18.49
2023-05-30T15:28:58.341Z,18.42
2023-05-30T15:31:26.152Z,18.40
2023-05-30T15:33:53.893Z,18.81
2023-05-30T15:36:21.943Z,18.61
2023-05-30T15:38:49.336Z,18.81
2023-05-30T15:41:17.053Z,18.56
2023-05-30T15:43:44.487Z,19.01
2023-05-30T15:46:13.549Z,19.34
2023-05-30T15:48:41.342Z,19.53
2023-05-30T15:51:08.767Z,18.64
2023-05-30T15:53:36.122Z,18.63
2023-05-30T15:56:03.893Z,18.59
2023-05-30T15:58:31.378Z,18.38
2023-05-30T16:00:59.066Z,18.01
2023-05-30T16:03:26.910Z,18.27
2023-05-30T16:05:54.332Z,18.50
2023-05-30T16:08:21.764Z,18.80
2023-05-30T16:10:49.392Z,18.76
2023-05-30T16:13:17.306Z,18.92
2023-05-30T16:15:44.694Z,18.79
2023-05-30T16:18:12.403Z,18.45
2023-05-30T16:20:43.735Z,19.27
2023-05-30T16:23:11.411Z,19.19
2023-05-30T16:25:39.079Z,18.98
2023-05-30T16:28:06.474Z,19.32
2023-05-30T16:30:33.877Z,19.49
2023-05-30T16:33:01.582Z,19.45
2023-05-30T16:35:29.028Z,19.55
2023-05-30T16:37:56.444Z,19.22
2023-05-30T16:40:24.076Z,19.55
2023-05-30T16:42:51.873Z,19.93
2023-05-30T16:45:19.344Z,19.93
2023-05-30T16:47:47.065Z,19.59
2023-05-30T16:50:15.199Z,19.81
2023-05-30T16:52:42.754Z,19.67
2023-05-30T16:55:10.416Z,19.84
2023-05-30T16:57:37.908Z,20.29
2023-05-30T17:00:05.672Z,20.16
2023-05-30T17:02:33.424Z,20.40
2023-05-30T17:05:02.040Z,19.98
2023-05-30T17:07:29.444Z,19.99
2023-05-30T17:09:57.110Z,20.73
2023-05-30T17:12:24.529Z,21.05
2023-05-30T17:14:52.011Z,21.03
2023-05-30T17:17:19.683Z,21.13
2023-05-30T17:19:47.087Z,21.36
2023-05-30T17:22:14.535Z,21.52
2023-05-30T17:24:42.228Z,21.50
2023-05-30T17:27:09.682Z,21.55
2023-05-30T17:29:38.420Z,21.50
2023-05-30T17:32:07.438Z,21.83
2023-05-30T17:34:34.974Z,21.97
2023-05-30T17:37:03.334Z,22.21
2023-05-30T17:39:31.451Z,22.07
2023-05-30T17:41:58.845Z,21.65
2023-05-30T17:44:26.283Z,22.30
2023-05-30T17:46:53.933Z,21.77
2023-05-30T17:49:21.303Z,22.02
2023-05-30T17:51:48.770Z,22.09
2023-05-30T17:54:16.428Z,22.28
2023-05-30T17:56:43.813Z,22.00
2023-05-30T17:59:11.321Z,22.21
2023-05-30T18:01:39.080Z,22.48
2023-05-30T18:04:06.857Z,22.48
2023-05-30T18:06:34.268Z,22.11
2023-05-30T18:09:01.689Z,21.36
2023-05-30T18:11:29.378Z,21.82
2023-05-30T18:13:56.787Z,22.35
2023-05-30T18:16:24.295Z,22.30
2023-05-30T18:18:52.047Z,22.52
2023-05-30T18:21:19.448Z,22.12
2023-05-30T18:23:46.897Z,21.42
2023-05-30T18:26:14.522Z,21.63
2023-05-30T18:28:42.399Z,21.69
2023-05-30T18:31:09.959Z,21.49
2023-05-30T18:33:37.627Z,21.59
2023-05-30T18:36:13.628Z,21.64
2023-05-30T18:38:42.815Z,21.72
2023-05-30T18:41:14.039Z,21.43
2023-05-30T18:43:42.024Z,21.33
2023-05-30T18:46:09.980Z,21.02
2023-05-30T18:48:45.164Z,20.65
2023-05-30T18:51:14.828Z,20.49
2023-05-30T18:53:43.127Z,21.38
2023-05-30T18:56:12.305Z,20.91
2023-05-30T18:58:42.181Z,21.52
2023-05-30T19:01:09.939Z,21.47
2023-05-30T19:03:39.565Z,21.54
2023-05-30T19:06:07.423Z,21.55
2023-05-30T19:08:34.787Z,21.89
2023-05-30T19:11:02.214Z,21.36
2023-05-30T19:13:29.872Z,20.99
2023-05-30T19:15:57.322Z,20.92
2023-05-30T19:18:25.941Z,21.20
2023-05-30T19:20:55.548Z,21.26
2023-05-30T19:23:23.106Z,21.13
2023-05-30T19:25:50.797Z,21.14
2023-05-30T19:28:18.532Z,21.14
2023-05-30T19:30:45.961Z,21.03
2023-05-30T19:33:13.356Z,20.96
2023-05-30T19:35:41.042Z,21.13
2023-05-30T19:38:08.410Z,21.29
2023-05-30T19:40:35.875Z,21.44
2023-05-30T19:43:04.648Z,21.24
2023-05-30T19:45:32.073Z,20.34
2023-05-30T19:47:59.527Z,19.60
2023-05-30T19:50:27.231Z,19.59
2023-05-30T19:52:55.227Z,19.88
2023-05-30T19:55:24.716Z,20.41
2023-05-30T19:57:52.347Z,20.75
2023-05-30T20:00:19.762Z,20.75
2023-05-30T20:02:47.447Z,20.26
2023-05-30T20:05:14.999Z,20.41
2023-05-30T20:07:42.386Z,20.95
2023-05-30T20:10:10.179Z,21.09
2023-05-30T20:12:37.553Z,21.12
2023-05-30T20:15:05.380Z,20.98
2023-05-30T20:17:34.174Z,20.85
2023-05-30T20:20:01.600Z,20.60
2023-05-30T20:22:29.007Z,20.18
2023-05-30T20:24:56.906Z,20.09
2023-05-30T20:27:24.335Z,20.34
2023-05-30T20:29:51.750Z,20.30
2023-05-30T20:32:19.460Z,20.73
2023-05-30T20:34:47.584Z,20.28
2023-05-30T20:37:15.069Z,20.25
2023-05-30T20:39:42.783Z,20.49
2023-05-30T20:42:10.512Z,20.27
2023-05-30T20:44:37.899Z,20.27
2023-05-30T20:47:05.746Z,20.45
2023-05-30T20:49:33.413Z,20.38
2023-05-30T20:52:01.076Z,20.58
2023-05-30T20:54:28.919Z,20.32
2023-05-30T20:56:58.832Z,20.48
2023-05-30T20:59:26.237Z,20.44
2023-05-30T21:01:53.909Z,20.62
2023-05-30T21:04:21.314Z,20.22
2023-05-30T21:06:48.716Z,19.68
2023-05-30T21:09:16.369Z,20.33
2023-05-30T21:11:43.753Z,20.53
2023-05-30T21:14:11.243Z,20.06
2023-05-30T21:16:38.935Z,20.18
2023-05-30T21:19:07.525Z,20.62
2023-05-30T21:21:34.960Z,20.58
2023-05-30T21:24:04.882Z,20.33
2023-05-30T21:26:32.365Z,20.38
2023-05-30T21:29:00.071Z,20.36
2023-05-30T21:31:28.057Z,20.46
2023-05-30T21:33:55.476Z,20.90
2023-05-30T21:36:22.938Z,20.77
2023-05-30T21:38:50.821Z,20.71
2023-05-30T21:41:19.206Z,20.29
2023-05-30T21:43:47.249Z,20.72
2023-05-30T21:46:15.027Z,20.30
2023-05-30T21:48:42.454Z,20.26
2023-05-30T21:51:09.846Z,20.33
2023-05-30T21:53:37.537Z,20.55
2023-05-30T21:56:05.151Z,20.80
2023-05-30T21:58:32.511Z,20.71
2023-05-30T22:01:02.026Z,20.68
2023-05-30T22:03:31.419Z,20.87
2023-05-30T22:05:58.924Z,20.97
2023-05-30T22:08:26.385Z,20.48
2023-05-30T22:10:54.016Z,20.49
2023-05-30T22:13:21.415Z,20.85
2023-05-30T22:15:48.845Z,20.78
2023-05-30T22:18:16.572Z,20.73
2023-05-30T22:20:44.095Z,21.00
2023-05-30T22:23:11.571Z,21.02
2023-05-30T22:25:39.264Z,20.88
2023-05-30T22:28:06.626Z,21.25
2023-05-30T22:30:33.995Z,20.77
2023-05-30T22:33:01.639Z,21.04
2023-05-30T22:35:29.941Z,20.70
2023-05-30T22:37:57.364Z,20.78
2023-05-30T22:40:25.038Z,20.57
2023-05-30T22:42:52.532Z,20.70
2023-05-30T22:45:19.974Z,20.55
2023-05-30T22:47:47.741Z,20.73
2023-05-30T22:50:15.213Z,20.87
2023-05-30T22:52:42.664Z,21.26
2023-05-30T22:55:10.382Z,21.17
2023-05-30T22:57:37.807Z,20.90
2023-05-30T23:00:07.018Z,21.16
2023-05-30T23:02:34.744Z,21.43
2023-05-30T23:05:02.241Z,21.48
2023-05-30T23:07:29.604Z,21.48
2023-05-30T23:09:57.286Z,20.97
2023-05-30T23:12:24.763Z,21.37
2023-05-30T23:14:52.123Z,21.57
2023-05-30T23:17:19.775Z,21.64
2023-05-30T23:19:47.175Z,21.56
2023-05-30T23:22:14.587Z,21.13
2023-05-30T23:24:42.342Z,21.44
2023-05-30T23:27:09.775Z,21.51
2023-05-30T23:29:37.180Z,21.77
2023-05-30T23:32:05.282Z,21.52
2023-05-30T23:34:32.698Z,21.37
2023-05-30T23:37:00.126Z,21.35
2023-05-30T23:39:27.790Z,21.52
2023-05-30T23:41:55.156Z,21.67
2023-05-30T23:44:23.671Z,21.60
2023-05-30T23:46:51.449Z,21.65
2023-05-30T23:49:18.833Z,21.52
2023-05-30T23:51:49.382Z,21.78
2023-05-30T23:54:17.259Z,21.61
2023-05-30T23:56:44.694Z,21.46
2023-05-30T23:59:12.120Z,21.46
